Latest Weather Observations for Longreach

IDQ60801

Issued at 5:35 pm EST Monday 20 October 2014 (issued every 30 minutes, with the page automatically refreshed every 10 minutes)

About weather observations | Map of weather stations | Latest weather observations for QLD | Other Formats
Station Details ID: 036031 Name: LONGREACH AERO Lat: -23.44 Lon: 144.28 Height: 192.2 m
Data from the previous 72 hours. | See also: Recent months at Longreach
Date/Time
EST
Temp
°C
App
Temp
°C
Dew
Point
Rel
Hum
%
Delta-T
°C
Wind Press
QNH
hPa
Press
MSL
hPa
Rain
since 9 am
mm
Dir
 
Spd
km/h
Gust
km/h
Spd
kts
Gust
kts
20/05:30pm 32.0 26.8 3.3 16 14.8 E 20 28 11 15 1017.4 - 0.0
20/05:00pm 32.3 26.5 2.4 15 15.2 ESE 22 35 12 19 1017.2 - 0.0
20/04:30pm 33.0 26.7 1.7 13 15.8 ESE 24 35 13 19 1017.1 - 0.0
20/04:04pm 33.4 26.5 2.3 14 15.9 ESE 28 46 15 25 1017.1 - 0.0
20/04:00pm 33.5 27.0 2.5 14 15.9 ESE 26 33 14 18 1017.1 - 0.0
20/03:30pm 32.5 26.0 2.9 15 15.2 E 26 39 14 21 1017.3 - 0.0
20/03:00pm 32.4 27.2 3.8 16 14.9 E 20 30 11 16 1017.6 1016.6 0.0
20/02:30pm 32.3 27.2 3.9 16 14.8 SE 20 37 11 20 1018.0 - 0.0
20/02:00pm 32.2 25.6 4.4 17 14.6 E 28 33 15 18 1018.3 - 0.0
20/01:30pm 32.3 26.0 5.6 18 14.3 ESE 28 44 15 24 1018.8 - 0.0
20/01:00pm 31.6 25.6 5.5 19 13.9 ENE 26 39 14 21 1019.5 - 0.0
20/12:30pm 32.0 26.8 5.6 19 14.1 E 22 39 12 21 1020.1 - 0.0
20/12:00pm 31.4 25.8 5.4 19 13.8 E 24 39 13 21 1020.8 1019.7 0.0
20/11:30am 30.1 24.4 6.7 23 12.6 ENE 26 46 14 25 1021.3 - 0.0
20/11:00am 29.2 23.0 6.0 23 12.3 ENE 28 39 15 21 1021.8 - 0.0
20/10:30am 28.6 24.2 7.6 26 11.4 NE 20 32 11 17 1022.4 - 0.0
20/10:00am 27.6 22.7 7.0 27 11.0 NNE 22 33 12 18 1023.0 - 0.0
20/09:30am 26.4 21.1 6.9 29 10.4 NNE 24 33 13 18 1023.4 - 0.0
20/09:00am 25.8 19.8 7.1 30 9.9 NE 28 35 15 19 1023.6 1022.6 0.0
20/08:30am 24.6 18.4 7.9 34 8.9 NE 30 35 16 19 1023.5 - 0.0
20/08:00am 23.6 17.4 7.9 36 8.4 NE 30 37 16 20 1023.4 - 0.0
20/07:30am 22.7 17.0 8.4 40 7.6 NE 28 35 15 19 1023.2 - 0.0
20/07:00am 21.2 17.0 8.3 43 6.8 NE 20 30 11 16 1022.8 - 0.0
20/06:30am 18.8 15.6 6.9 46 6.0 ENE 13 17 7 9 1022.3 - 0.0
20/06:00am 16.6 12.9 6.2 50 5.1 ENE 15 15 8 8 1021.9 1020.9 0.0
20/05:30am 16.6 12.8 6.0 49 5.2 NE 15 15 8 8 1021.4 - 0.0
20/05:00am 16.8 12.9 5.4 47 5.5 NE 15 17 8 9 1021.2 - 0.0
20/04:30am 16.7 12.8 5.3 47 5.5 NE 15 15 8 8 1020.6 - 0.0
20/04:00am 18.3 14.8 5.4 42 6.3 NNE 13 13 7 7 1020.3 - 0.0
20/03:30am 19.2 15.8 5.7 41 6.7 NNE 13 15 7 8 1020.0 - 0.0
20/03:00am 18.7 15.1 5.2 41 6.6 NE 13 15 7 8 1019.8 1018.8 0.0
20/02:30am 20.3 16.0 5.4 37 7.4 NE 17 19 9 10 1019.8 - 0.0
20/02:00am 21.3 17.0 5.2 35 8.0 NE 17 20 9 11 1019.9 - 0.0
20/01:30am 22.2 17.4 5.5 33 8.4 ENE 20 28 11 15 1020.1 - 0.0
20/01:00am 21.6 17.7 5.4 34 8.1 NE 15 19 8 10 1020.4 - 0.0
20/12:30am 21.8 17.4 4.9 33 8.4 ENE 17 19 9 10 1020.6 - 0.0
20/12:00am 22.5 17.8 5.1 32 8.7 ENE 19 24 10 13 1021.1 1020.1 0.0
 
Date/Time
EST
Temp
°C
App
Temp
°C
Dew
Point
Rel
Hum
%
Delta-T
°C
Wind Press
QNH
hPa
Press
MSL
hPa
Rain
since 9 am
mm
Dir
 
Spd
km/h
Gust
km/h
Spd
kts
Gust
kts
19/11:30pm 23.5 18.3 5.3 30 9.2 ENE 22 26 12 14 1021.3 - 0.0
19/11:00pm 23.7 18.8 5.3 30 9.3 ENE 20 26 11 14 1021.6 - 0.0
19/10:30pm 23.6 19.4 5.5 31 9.2 ENE 17 19 9 10 1021.8 - 0.0
19/10:00pm 24.1 19.8 5.1 29 9.6 ENE 17 17 9 9 1021.6 - 0.0
19/09:30pm 24.6 20.2 4.8 27 10.0 ENE 17 20 9 11 1021.4 - 0.0
19/09:00pm 24.7 20.7 4.9 28 10.0 ENE 15 17 8 9 1020.9 1019.9 0.0
19/08:30pm 25.7 21.3 4.9 26 10.6 ENE 17 24 9 13 1020.2 - 0.0
19/08:00pm 26.6 21.8 4.6 24 11.2 ENE 19 24 10 13 1019.7 - 0.0
19/07:30pm 27.4 22.6 4.8 23 11.6 E 19 22 10 12 1019.4 - 0.0
19/07:00pm 28.0 23.6 5.0 23 11.9 E 17 22 9 12 1019.1 - 0.0
19/06:30pm 29.4 23.9 4.1 20 13.0 E 22 28 12 15 1018.7 - 0.0
19/06:00pm 30.3 24.3 3.5 18 13.7 E 24 32 13 17 1018.4 1017.4 0.0
19/05:30pm 31.1 24.0 3.5 17 14.2 E 30 37 16 20 1018.0 - 0.0
19/05:00pm 32.0 25.5 2.9 16 14.9 E 26 35 14 19 1017.7 - 0.0
19/04:30pm 31.9 25.1 3.0 16 14.8 E 28 35 15 19 1017.6 - 0.0
19/04:00pm 31.8 26.6 3.6 17 14.6 E 20 41 11 22 1017.4 - 0.0
19/03:30pm 33.3 26.2 1.6 13 16.0 E 28 39 15 21 1017.6 - 0.0
19/03:00pm 32.6 26.4 1.9 14 15.5 ESE 24 44 13 24 1018.0 1017.0 0.0
19/02:30pm 32.3 25.1 3.2 16 15.0 ESE 30 43 16 23 1018.4 - 0.0
19/02:00pm 32.4 25.2 3.0 15 15.1 E 30 50 16 27 1018.7 - 0.0
19/01:59pm 32.6 25.7 2.7 15 15.3 E 28 50 15 27 1018.7 - 0.0
19/01:30pm 32.3 27.7 3.9 16 14.8 ENE 17 22 9 12 1019.3 - 0.0
19/01:00pm 31.1 25.1 5.2 19 13.7 E 26 39 14 21 1020.0 - 0.0
19/12:30pm 30.4 25.0 6.4 22 12.9 ESE 24 33 13 18 1020.9 - 0.0
19/12:00pm 30.1 24.1 7.0 23 12.5 ENE 28 43 15 23 1021.4 1020.4 0.0
19/11:30am 29.5 23.5 7.1 24 12.1 ENE 28 39 15 21 1022.0 - 0.0
19/11:00am 29.3 23.6 8.2 26 11.6 ENE 28 37 15 20 1022.4 - 0.0
19/10:30am 27.8 22.5 8.4 29 10.7 ENE 26 41 14 22 1023.0 - 0.0
19/10:00am 27.3 21.2 8.4 30 10.3 NE 30 41 16 22 1023.5 - 0.0
19/09:30am 26.8 20.5 7.6 29 10.3 NE 30 39 16 21 1023.7 - 0.0
19/09:00am 25.9 19.1 7.5 31 9.8 NE 33 48 18 26 1023.7 1022.7 0.0
19/08:30am 25.1 17.3 6.8 31 9.6 NE 37 50 20 27 1023.7 - 0.0
19/08:00am 24.2 17.0 6.1 31 9.4 NE 33 41 18 22 1023.4 - 0.0
19/07:30am 23.0 16.4 5.9 33 8.7 NE 30 39 16 21 1023.0 - 0.0
19/07:00am 21.9 16.3 5.3 34 8.3 ENE 24 33 13 18 1022.6 - 0.0
19/06:30am 20.3 15.6 5.1 37 7.5 ENE 19 28 10 15 1022.1 - 0.0
19/06:00am 19.3 15.0 5.2 39 6.9 ENE 17 26 9 14 1021.5 1020.5 0.0
19/05:30am 18.4 14.0 4.7 40 6.6 ENE 17 19 9 10 1021.0 - 0.0
19/05:00am 19.2 14.3 4.2 37 7.2 NE 19 26 10 14 1020.5 - 0.0
19/04:30am 19.7 15.1 3.8 35 7.6 NE 17 22 9 12 1020.2 - 0.0
19/04:00am 20.2 14.9 3.1 32 8.1 NE 20 28 11 15 1019.9 - 0.0
19/03:30am 20.4 15.3 3.1 32 8.2 ENE 19 26 10 14 1019.7 - 0.0
19/03:00am 21.0 15.8 2.6 29 8.7 NE 19 24 10 13 1019.3 1018.3 0.0
19/02:30am 21.3 15.8 1.8 27 9.1 NE 20 26 11 14 1019.2 - 0.0
19/02:00am 21.3 15.6 0.7 25 9.4 NE 20 26 11 14 1019.0 - 0.0
19/01:30am 21.6 16.5 0.5 24 9.6 NE 17 19 9 10 1019.0 - 0.0
19/01:00am 22.6 16.9 0.3 23 10.2 ENE 20 28 11 15 1019.2 - 0.0
19/12:30am 23.1 16.6 0.2 22 10.5 ENE 24 30 13 16 1019.1 - 0.0
19/12:00am 23.5 16.9 -0.5 20 10.9 ENE 24 32 13 17 1019.3 1018.3 0.0
 
Date/Time
EST
Temp
°C
App
Temp
°C
Dew
Point
Rel
Hum
%
Delta-T
°C
Wind Press
QNH
hPa
Press
MSL
hPa
Rain
since 9 am
mm
Dir
 
Spd
km/h
Gust
km/h
Spd
kts
Gust
kts
18/11:30pm 23.6 17.7 -1.1 19 11.1 ENE 20 28 11 15 1019.4 - 0.0
18/11:00pm 23.4 18.0 -1.6 19 11.1 NE 17 19 9 10 1019.4 - 0.0
18/10:30pm 24.4 18.4 -1.4 18 11.6 ENE 20 26 11 14 1019.5 - 0.0
18/10:00pm 25.2 19.3 -0.8 18 11.9 ENE 20 24 11 13 1019.6 - 0.0
18/09:30pm 25.5 19.1 -1.9 16 12.3 E 22 28 12 15 1019.4 - 0.0
18/09:00pm 26.4 20.3 -2.3 15 12.9 E 20 28 11 15 1019.4 1018.4 0.0
18/08:30pm 26.7 20.5 -3.0 14 13.2 E 20 28 11 15 1019.1 - 0.0
18/08:00pm 26.5 20.4 -3.5 13 13.2 E 19 20 10 11 1018.8 - 0.0
18/07:30pm 26.0 21.0 -1.5 16 12.5 E 15 17 8 9 1018.4 - 0.0
18/07:00pm 28.8 23.1 -3.6 12 14.5 ESE 17 19 9 10 1017.9 - 0.0
18/06:30pm 30.4 25.1 -3.5 11 15.4 ESE 15 19 8 10 1017.5 - 0.0
18/06:00pm 31.8 25.6 -3.5 10 16.2 ESE 20 26 11 14 1017.1 1016.1 0.0
18/05:30pm 32.3 26.4 -1.9 11 16.2 ESE 19 26 10 14 1016.8 - 0.0
18/05:00pm 33.0 28.2 -2.9 10 16.8 SE 13 22 7 12 1016.4 - 0.0
18/04:30pm 33.2 28.3 -3.3 9 17.0 ESE 13 19 7 10 1016.3 - 0.0
18/04:00pm 33.3 28.9 -2.5 10 16.9 SSE 11 32 6 17 1016.3 - 0.0
18/03:30pm 33.8 27.6 -3.0 9 17.3 ESE 20 30 11 16 1016.5 - 0.0
18/03:00pm 32.8 27.4 -1.0 11 16.3 NE 17 24 9 13 1016.8 1015.8 0.0
18/02:30pm 32.5 26.2 -0.9 11 16.1 ENE 22 32 12 17 1017.0 - 0.0
18/02:00pm 33.4 29.3 -3.3 9 17.1 NNW 9 13 5 7 1017.5 - 0.0
18/01:30pm 32.6 27.1 0.7 13 15.8 NE 19 32 10 17 1018.0 - 0.0
18/01:00pm 32.2 26.9 -0.4 12 15.8 ENE 17 30 9 16 1018.5 - 0.0
18/12:30pm 31.4 25.8 -2.7 11 15.8 ESE 17 28 9 15 1019.2 - 0.0
18/12:00pm 31.3 24.4 -3.0 11 15.8 ESE 24 33 13 18 1019.8 1018.8 0.0
18/11:30am 30.3 26.4 1.2 15 14.3 E 11 17 6 9 1020.2 - 0.0
18/11:00am 30.3 24.6 -0.9 13 14.8 NE 19 30 10 16 1020.8 - 0.0
18/10:30am 30.2 24.4 0.1 14 14.5 E 20 26 11 14 1021.1 - 0.0
18/10:00am 29.4 23.7 -0.6 14 14.2 ENE 19 26 10 14 1021.4 - 0.0
18/09:30am 28.8 22.7 -2.7 12 14.3 NE 20 30 11 16 1021.5 - 0.0
18/09:00am 28.1 21.5 -3.2 12 14.0 NE 22 30 12 16 1021.4 1020.4 0.0
18/08:30am 26.1 19.6 -5.9 11 13.4 ENE 20 26 11 14 1021.3 - 0.0
18/08:00am 24.4 16.9 -9.0 10 13.0 E 24 30 13 16 1020.9 - 0.0
18/07:30am 20.5 12.8 -11.0 11 11.3 ESE 24 35 13 19 1020.5 - 0.0
18/07:00am 17.6 10.7 -11.0 13 9.9 SE 20 26 11 14 1020.0 - 0.0
18/06:30am 15.3 8.5 -11.4 15 8.9 SE 19 20 10 11 1019.5 - 0.0
18/06:00am 14.4 8.0 -11.4 15 8.5 SE 17 19 9 10 1019.1 1018.1 0.0
18/05:30am 14.1 8.1 -10.9 16 8.3 SE 15 17 8 9 1018.8 - 0.0
18/05:00am 14.5 8.2 -9.7 18 8.3 SE 17 19 9 10 1018.4 - 0.0
18/04:30am 14.8 8.9 -10.1 17 8.5 SE 15 17 8 9 1018.1 - 0.0
18/04:00am 14.6 8.6 -10.7 16 8.5 SE 15 17 8 9 1017.9 - 0.0
18/03:30am 15.2 10.0 -10.3 16 8.7 SE 11 13 6 7 1017.8 - 0.0
18/03:00am 15.1 9.2 -9.9 17 8.6 SE 15 15 8 8 1017.7 1016.7 0.0
18/02:30am 16.4 10.5 -9.9 15 9.2 SE 15 17 8 9 1017.7 - 0.0
18/02:00am 16.7 10.7 -11.0 14 9.5 SE 15 17 8 9 1017.8 - 0.0
18/01:30am 16.8 10.8 -11.4 13 9.6 SE 15 17 8 9 1017.9 - 0.0
18/01:00am 17.5 11.0 -12.7 11 10.1 SE 17 19 9 10 1018.0 - 0.0
18/12:30am 18.1 11.6 -12.9 11 10.4 SE 17 19 9 10 1018.1 - 0.0
18/12:00am 18.3 12.2 -12.9 11 10.5 SE 15 17 8 9 1018.2 1017.2 0.0
 
Date/Time
EST
Temp
°C
App
Temp
°C
Dew
Point
Rel
Hum
%
Delta-T
°C
Wind Press
QNH
hPa
Press
MSL
hPa
Rain
since 9 am
mm
Dir
 
Spd
km/h
Gust
km/h
Spd
kts
Gust
kts
17/11:30pm 18.7 12.5 -13.9 10 10.8 SE 15 17 8 9 1018.3 - 0.0
17/11:00pm 19.9 13.8 -13.2 9 11.3 SE 15 15 8 8 1018.5 - 0.0
17/10:30pm 21.1 15.0 -12.5 9 11.8 SE 15 17 8 9 1018.5 - 0.0
17/10:00pm 21.7 16.1 -11.7 10 12.0 SE 13 17 7 9 1018.5 - 0.0
17/09:30pm 22.0 16.7 -13.0 8 12.3 SE 11 15 6 8 1018.5 - 0.0
17/09:00pm 22.1 16.6 -9.5 11 11.9 SSE 13 13 7 7 1018.3 1017.3 0.0
17/08:30pm 22.0 17.0 -8.5 12 11.7 SE 11 11 6 6 1018.1 - 0.0
17/08:00pm 24.2 18.6 -11.1 9 13.2 SSE 13 13 7 7 1017.8 - 0.0
17/07:30pm 25.1 19.9 -10.6 8 13.6 SSE 11 13 6 7 1017.5 - 0.0
17/07:00pm 26.5 21.7 -6.2 11 13.7 S 11 11 6 6 1017.1 - 0.0
17/06:30pm 28.9 23.2 -11.9 6 15.8 SSE 13 15 7 8 1016.8 - 0.0
17/06:00pm 30.3 24.4 -16.4 4 17.0 S 13 17 7 9 1016.4 1015.4 0.0

Other Formats:

Comma delimited format used in spreadsheet applications
http://www.bom.gov.au/fwo/IDQ60801/IDQ60801.94346.axf

JavaScript Object Notation format (JSON) in row-major order
http://www.bom.gov.au/fwo/IDQ60801/IDQ60801.94346.json